Time;durP1;ratioP1;P1;durP2;ratioP2;P2;SDS_P1;SDS_P2;PMS_P1;PMS_P2;Temp;Humidity;BMP_temperature;BMP_pressure;BME280_temperature;BME280_humidity;BME280_pressure;Samples;Min_cycle;Max_cycle;Signal;HPM_P1;HPM_P2
2021/09/22 00:00:45;;;;;;;;;34.25;26.75;;;;;14.15;65.48;102167.09;5057122;28;45319;-61
2021/09/22 00:03:11;;;;;;;;;28.25;26.00;;;;;14.16;64.94;102173.25;5056586;28;61445;-62
2021/09/22 00:05:36;;;;;;;;;31.25;27.00;;;;;14.15;65.45;102171.56;5057133;28;46453;-61
2021/09/22 00:08:02;;;;;;;;;27.50;25.00;;;;;14.15;65.09;102161.81;5056671;28;54943;-61
2021/09/22 00:10:28;;;;;;;;;34.00;27.75;;;;;14.15;65.52;102153.06;5057270;28;45369;-61
2021/09/22 00:12:53;;;;;;;;;33.25;28.75;;;;;14.11;65.51;102149.81;5056316;28;66330;-61
2021/09/22 00:15:20;;;;;;;;;32.75;26.75;;;;;14.09;65.78;102149.94;5056628;28;45425;-61
2021/09/22 00:17:46;;;;;;;;;35.75;28.25;;;;;14.08;65.35;102144.75;5057040;28;45321;-61
2021/09/22 00:20:11;;;;;;;;;30.50;25.75;;;;;14.07;65.77;102149.22;5056987;28;45411;-61
2021/09/22 00:22:37;;;;;;;;;29.50;25.25;;;;;14.06;65.27;102147.53;5056684;28;45528;-61
2021/09/22 00:25:03;;;;;;;;;30.75;25.00;;;;;14.05;65.78;102151.13;5056102;28;68100;-61
2021/09/22 00:27:29;;;;;;;;;29.75;25.75;;;;;14.05;65.84;102145.84;5038795;28;45832;-61
2021/09/22 00:29:54;;;;;;;;;31.25;27.00;;;;;14.05;65.60;102147.63;5056731;28;45541;-61
2021/09/22 00:32:20;;;;;;;;;29.00;28.00;;;;;14.04;65.77;102144.16;5056680;28;45217;-59
2021/09/22 00:34:45;;;;;;;;;31.50;26.25;;;;;14.04;65.31;102146.81;5055977;28;63510;-59
2021/09/22 00:37:10;;;;;;;;;29.50;26.00;;;;;14.03;65.59;102153.06;5055540;28;72272;-61
2021/09/22 00:39:36;;;;;;;;;33.25;26.50;;;;;14.00;65.76;102142.72;5055998;28;65556;-62
2021/09/22 00:42:04;;;;;;;;;30.75;27.50;;;;;13.98;65.89;102146.47;5038757;28;45452;-61
2021/09/22 00:44:30;;;;;;;;;29.00;27.50;;;;;13.93;65.99;102147.66;5056530;28;46394;-61
2021/09/22 00:46:55;;;;;;;;;30.25;26.75;;;;;13.89;65.91;102138.28;5056530;28;45356;-61
2021/09/22 00:49:21;;;;;;;;;33.00;26.75;;;;;13.88;65.89;102139.22;5056837;28;45459;-61
2021/09/22 00:51:46;;;;;;;;;33.50;29.75;;;;;13.85;65.77;102133.31;5056671;28;45430;-61
2021/09/22 00:54:15;;;;;;;;;28.50;24.50;;;;;13.84;66.07;102136.94;5037783;28;66194;-61
2021/09/22 00:56:40;;;;;;;;;30.25;26.75;;;;;13.83;66.30;102124.69;5056308;28;46220;-61
2021/09/22 00:59:06;;;;;;;;;31.75;24.75;;;;;13.83;65.80;102125.53;5037733;28;59915;-61
2021/09/22 01:01:32;;;;;;;;;34.50;26.75;;;;;13.82;65.92;102133.56;5055783;28;58862;-61
2021/09/22 01:04:00;;;;;;;;;31.25;27.25;;;;;13.80;66.17;102131.88;5056922;28;46312;-61
2021/09/22 01:06:25;;;;;;;;;28.50;23.50;;;;;13.79;66.12;102124.09;5059914;28;45853;-61
2021/09/22 01:08:52;;;;;;;;;30.75;26.50;;;;;13.79;66.26;102124.09;5041639;28;51925;-61
2021/09/22 01:11:17;;;;;;;;;35.50;30.00;;;;;13.77;65.87;102120.72;5059839;28;45178;-61
2021/09/22 01:13:43;;;;;;;;;29.75;27.75;;;;;13.74;65.84;102124.44;5024150;28;70378;-61
2021/09/22 01:16:08;;;;;;;;;35.00;24.00;;;;;13.71;66.10;102131.75;5059328;28;57986;-61
2021/09/22 01:18:34;;;;;;;;;30.25;25.00;;;;;13.68;66.25;102132.84;5059911;28;45234;-61
2021/09/22 01:21:00;;;;;;;;;30.00;26.75;;;;;13.66;66.41;102129.47;5041763;28;45273;-61
2021/09/22 01:23:26;;;;;;;;;26.25;22.75;;;;;13.63;66.54;102117.31;5059705;28;45310;-61
2021/09/22 01:25:52;;;;;;;;;29.00;26.50;;;;;13.64;65.85;102120.81;5025161;28;45348;-61
2021/09/22 01:28:19;;;;;;;;;32.25;27.75;;;;;13.63;65.73;102129.72;5059816;28;45408;-61
2021/09/22 01:30:45;;;;;;;;;30.75;28.25;;;;;13.62;65.38;102122.75;5041853;28;45448;-62
2021/09/22 01:33:11;;;;;;;;;26.00;24.50;;;;;13.62;65.92;102126.22;5041489;28;46128;-61
2021/09/22 01:35:38;;;;;;;;;25.00;23.50;;;;;13.62;65.58;102122.75;5059590;28;45370;-61
2021/09/22 01:38:09;;;;;;;;;27.75;23.75;;;;;13.60;65.49;102122.84;5041753;28;45257;-61
2021/09/22 01:40:34;;;;;;;;;27.25;24.00;;;;;13.59;66.05;102118.53;5059616;28;45266;-61
2021/09/22 01:43:00;;;;;;;;;31.25;26.25;;;;;13.59;65.57;102121.16;5058336;28;75587;-61
2021/09/22 01:45:25;;;;;;;;;32.75;25.75;;;;;13.59;65.82;102122.97;5041529;28;45407;-61
2021/09/22 01:47:51;;;;;;;;;30.25;24.75;;;;;13.57;65.32;102114.31;5059580;28;45340;-61
2021/09/22 01:50:19;;;;;;;;;29.50;25.25;;;;;13.57;65.91;102116.97;5059284;28;45447;-61
2021/09/22 01:52:45;;;;;;;;;30.50;27.00;;;;;13.57;65.73;102119.59;5041094;28;45569;-61
2021/09/22 01:55:11;;;;;;;;;32.50;27.00;;;;;13.55;65.58;102117.06;5059177;28;45438;-61
2021/09/22 01:57:36;;;;;;;;;29.25;27.75;;;;;13.54;65.93;102131.22;5059330;28;45225;-61
2021/09/22 02:00:04;;;;;;;;;28.00;27.00;;;;;13.52;65.32;102134.97;5059360;28;45454;-61
2021/09/22 02:02:29;;;;;;;;;32.50;28.25;;;;;13.51;65.53;102134.13;5059041;28;46517;-61
2021/09/22 02:04:54;;;;;;;;;31.00;26.75;;;;;13.49;65.65;102128.94;5058216;28;67900;-61
2021/09/22 02:07:20;;;;;;;;;32.25;29.75;;;;;13.48;66.06;102111.41;5058510;28;59294;-61
2021/09/22 02:09:45;;;;;;;;;30.25;28.00;;;;;13.46;66.08;102113.34;5058146;28;65252;-61
2021/09/22 02:12:10;;;;;;;;;31.50;24.75;;;;;13.43;66.22;102112.75;5040764;28;46267;-61
2021/09/22 02:14:36;;;;;;;;;23.00;23.00;;;;;13.40;66.18;102113.75;5058028;28;67862;-61
2021/09/22 02:17:01;;;;;;;;;29.75;26.75;;;;;13.37;66.71;102106.06;5058071;28;66643;-61
2021/09/22 02:19:28;;;;;;;;;31.50;25.50;;;;;13.35;66.32;102100.94;5058691;28;45470;-61
2021/09/22 02:21:54;;;;;;;;;38.50;30.00;;;;;13.33;66.81;102099.34;5057638;28;46435;-61
2021/09/22 02:24:19;;;;;;;;;32.00;27.25;;;;;13.30;66.32;102100.44;5058135;28;60244;-61
2021/09/22 02:26:44;;;;;;;;;34.25;27.00;;;;;13.28;66.84;102104.13;5058081;28;64318;-62
2021/09/22 02:29:10;;;;;;;;;30.75;27.25;;;;;13.25;66.39;102093.81;5058752;28;45209;-61
2021/09/22 02:31:35;;;;;;;;;30.50;28.00;;;;;13.23;66.95;102090.47;5057617;28;70278;-60
2021/09/22 02:34:01;;;;;;;;;31.75;27.00;;;;;13.20;67.13;102081.81;5057614;28;69798;-61
2021/09/22 02:36:26;;;;;;;;;35.25;30.00;;;;;13.18;67.01;102073.16;5040682;28;45396;-61
2021/09/22 02:38:52;;;;;;;;;28.50;26.50;;;;;13.20;66.90;102065.13;5058481;28;45309;-61
2021/09/22 02:41:17;;;;;;;;;30.50;28.75;;;;;13.20;66.61;102059.84;5058443;28;45460;-61
2021/09/22 02:43:43;;;;;;;;;30.75;27.00;;;;;13.19;66.91;102063.44;5058481;28;45468;-61
2021/09/22 02:46:08;;;;;;;;;37.75;32.25;;;;;13.18;67.22;102057.31;5058020;28;55918;-61
2021/09/22 02:48:33;;;;;;;;;32.75;26.75;;;;;13.19;66.75;102055.50;5057695;28;60632;-61
2021/09/22 02:50:59;;;;;;;;;34.50;29.00;;;;;13.19;67.33;102058.16;5058284;28;45479;-61
2021/09/22 02:53:24;;;;;;;;;32.25;27.25;;;;;13.20;66.78;102044.00;5058259;28;45267;-62
2021/09/22 02:55:50;;;;;;;;;38.75;28.75;;;;;13.21;66.56;102046.53;5057586;28;61008;-61
2021/09/22 02:58:15;;;;;;;;;34.25;28.50;;;;;13.20;67.14;102044.84;5057736;28;53439;-61
2021/09/22 03:00:40;;;;;;;;;37.00;29.75;;;;;13.18;66.60;102044.13;5058074;28;45340;-61
2021/09/22 03:03:06;;;;;;;;;33.50;29.25;;;;;13.18;67.10;102046.78;5057118;28;68996;-59
2021/09/22 03:05:31;;;;;;;;;33.50;30.00;;;;;13.17;66.75;102042.44;5057471;28;65384;-59
2021/09/22 03:07:57;;;;;;;;;31.00;29.00;;;;;13.16;67.17;102035.50;5057534;28;59915;-61
2021/09/22 03:10:22;;;;;;;;;30.75;29.50;;;;;13.17;66.82;102028.41;5057988;28;46271;-61
2021/09/22 03:12:48;;;;;;;;;36.50;28.25;;;;;13.16;67.08;102027.56;5057233;28;61176;-61
2021/09/22 03:15:13;;;;;;;;;35.25;30.00;;;;;13.14;66.91;102028.63;5058010;28;45242;-62
2021/09/22 03:17:38;;;;;;;;;32.50;30.50;;;;;13.13;66.60;102026.94;5057048;28;67123;-61
2021/09/22 03:20:04;;;;;;;;;36.25;29.00;;;;;13.11;66.38;102023.59;5057766;28;46185;-61
2021/09/22 03:22:30;;;;;;;;;33.00;28.50;;;;;13.10;66.97;102029.81;5057494;28;45464;-61
2021/09/22 03:24:55;;;;;;;;;29.50;27.50;;;;;13.08;66.45;102032.59;5039479;28;53253;-61
2021/09/22 03:27:20;;;;;;;;;34.50;28.00;;;;;13.07;66.47;102036.19;5057228;28;45371;-61
2021/09/22 03:29:46;;;;;;;;;34.00;29.00;;;;;13.04;67.06;102023.22;5056822;28;70693;-61
2021/09/22 03:32:11;;;;;;;;;33.25;27.25;;;;;13.02;66.90;102030.41;5057343;28;56502;-61
2021/09/22 03:34:37;;;;;;;;;30.25;29.00;;;;;13.02;66.86;102031.22;5057125;28;61754;-61
2021/09/22 03:37:02;;;;;;;;;35.75;30.50;;;;;13.00;66.80;102027.03;5056825;28;64671;-60
2021/09/22 03:39:27;;;;;;;;;33.25;28.25;;;;;12.97;67.10;102030.75;5056588;28;67452;-61
2021/09/22 03:41:53;;;;;;;;;33.00;25.50;;;;;12.95;66.86;102026.53;5057478;28;45329;-61
2021/09/22 03:44:18;;;;;;;;;34.75;30.75;;;;;12.92;67.10;102035.53;5057605;28;45804;-61
2021/09/22 03:46:44;;;;;;;;;39.00;30.75;;;;;12.89;67.00;102039.22;5057474;28;45299;-61
2021/09/22 03:49:09;;;;;;;;;35.25;30.50;;;;;12.85;67.11;102040.41;5056466;28;73139;-61
2021/09/22 03:51:34;;;;;;;;;32.50;27.00;;;;;12.84;67.64;102033.44;5056684;28;64048;-61
2021/09/22 03:54:00;;;;;;;;;31.00;26.25;;;;;12.83;67.38;102036.22;5057572;28;45362;-61
2021/09/22 03:56:25;;;;;;;;;35.00;30.50;;;;;12.83;67.17;102042.31;5057493;28;45512;-61
2021/09/22 03:58:51;;;;;;;;;30.25;29.50;;;;;12.79;67.89;102046.13;5056372;28;64815;-61
2021/09/22 04:01:16;;;;;;;;;33.50;28.50;;;;;12.77;67.44;102045.41;5056204;28;64001;-58
2021/09/22 04:03:42;;;;;;;;;37.00;33.00;;;;;12.75;67.40;102047.31;5056733;28;45362;-61
2021/09/22 04:06:07;;;;;;;;;40.25;31.50;;;;;12.72;67.27;102043.13;5057290;28;45561;-61
2021/09/22 04:08:33;;;;;;;;;35.75;29.00;;;;;12.72;67.51;102050.19;5056028;28;67345;-61
2021/09/22 04:10:58;;;;;;;;;31.75;25.50;;;;;12.70;67.89;102052.94;5056320;28;65231;-61
2021/09/22 04:13:23;;;;;;;;;35.50;31.75;;;;;12.71;67.06;102051.16;5057253;28;45358;-61
2021/09/22 04:15:49;;;;;;;;;34.75;30.25;;;;;12.73;67.12;102052.72;5038398;28;61237;-61
2021/09/22 04:18:14;;;;;;;;;38.50;33.00;;;;;12.76;66.34;102056.91;5056053;28;71146;-61
2021/09/22 04:20:39;;;;;;;;;40.00;31.50;;;;;12.79;66.38;102056.69;5056969;28;45333;-61
2021/09/22 04:23:05;;;;;;;;;31.75;30.00;;;;;12.84;66.57;102065.09;5056908;28;45285;-61
2021/09/22 04:25:30;;;;;;;;;33.00;28.25;;;;;12.87;66.97;102064.06;5056421;28;60702;-61
2021/09/22 04:27:55;;;;;;;;;39.50;30.00;;;;;12.88;66.99;102061.28;5055777;28;73818;-61
2021/09/22 04:30:21;;;;;;;;;35.25;31.25;;;;;12.93;66.19;102065.38;5037677;28;62805;-61
2021/09/22 04:32:46;;;;;;;;;40.50;30.25;;;;;12.94;66.45;102067.06;5056910;28;45687;-61
2021/09/22 04:35:12;;;;;;;;;34.00;30.25;;;;;12.91;66.14;102066.34;5056906;28;45279;-60
2021/09/22 04:37:40;;;;;;;;;39.25;32.50;;;;;12.90;66.30;102069.09;5055714;28;68414;-61
2021/09/22 04:40:06;;;;;;;;;38.50;30.75;;;;;12.89;66.20;102065.59;5037999;28;45301;-61
2021/09/22 04:42:32;;;;;;;;;32.50;30.50;;;;;12.89;66.22;102062.16;5056168;28;45382;-61
2021/09/22 04:44:57;;;;;;;;;34.25;30.25;;;;;12.88;66.51;102060.47;5056675;28;45236;-61
2021/09/22 04:47:23;;;;;;;;;32.50;28.75;;;;;12.86;66.15;102063.19;5056322;28;48262;-61
2021/09/22 04:49:48;;;;;;;;;41.00;31.25;;;;;12.84;66.03;102051.91;5056518;28;45318;-58
2021/09/22 04:52:13;;;;;;;;;42.75;35.00;;;;;12.81;65.86;102046.03;5055823;28;60168;-61
2021/09/22 04:54:39;;;;;;;;;29.50;27.25;;;;;12.79;65.97;102046.13;5055893;28;62162;-61
2021/09/22 04:57:04;;;;;;;;;35.25;31.00;;;;;12.78;66.08;102060.28;5056293;28;45503;-60
2021/09/22 04:59:29;;;;;;;;;41.25;33.00;;;;;12.77;66.32;102058.59;5055489;28;63609;-61
2021/09/22 05:01:55;;;;;;;;;33.25;30.50;;;;;12.76;66.29;102062.19;5055309;28;67733;-61
2021/09/22 05:04:20;;;;;;;;;37.00;30.50;;;;;12.73;66.52;102068.53;5055387;28;67893;-60
2021/09/22 05:06:46;;;;;;;;;35.00;31.25;;;;;12.70;66.42;102068.75;5056235;28;46617;-61
2021/09/22 05:09:11;;;;;;;;;32.75;29.25;;;;;12.69;66.32;102066.25;5055324;28;65012;-61
2021/09/22 05:11:36;;;;;;;;;31.00;28.75;;;;;12.68;66.54;102059.28;5055734;28;56164;-61
2021/09/22 05:14:02;;;;;;;;;27.50;24.00;;;;;12.64;66.45;102063.94;5055494;28;61894;-61
2021/09/22 05:16:27;;;;;;;;;34.75;28.50;;;;;12.63;66.53;102058.78;5055124;28;71233;-61
2021/09/22 05:18:53;;;;;;;;;33.00;27.25;;;;;12.60;66.49;102060.69;5055893;28;45296;-61
2021/09/22 05:21:18;;;;;;;;;36.00;27.75;;;;;12.56;66.58;102061.88;5055329;28;59784;-61
2021/09/22 05:23:43;;;;;;;;;34.25;29.00;;;;;12.52;66.36;102060.41;5055559;28;61908;-61
2021/09/22 05:26:09;;;;;;;;;35.50;30.50;;;;;12.46;66.89;102055.56;5055016;28;70937;-61
2021/09/22 05:28:34;;;;;;;;;41.50;31.75;;;;;12.42;66.83;102054.09;5055119;28;69406;-61
2021/09/22 05:30:59;;;;;;;;;36.25;32.00;;;;;12.38;66.51;102061.41;5055471;28;57737;-61
2021/09/22 05:33:25;;;;;;;;;30.00;28.00;;;;;12.36;66.58;102060.69;5055174;28;63794;-61
2021/09/22 05:35:50;;;;;;;;;37.50;31.25;;;;;12.37;66.28;102072.91;5054759;28;72109;-61
2021/09/22 05:38:16;;;;;;;;;37.75;32.50;;;;;12.37;66.79;102074.69;5054738;28;66535;-61
2021/09/22 05:40:41;;;;;;;;;33.50;30.00;;;;;12.34;66.85;102062.56;5055950;28;45368;-61
2021/09/22 05:43:06;;;;;;;;;39.25;31.50;;;;;12.35;66.72;102071.31;5055887;28;45480;-61
2021/09/22 05:45:32;;;;;;;;;31.25;30.25;;;;;12.31;66.35;102074.16;5054955;28;71448;-61
2021/09/22 05:47:57;;;;;;;;;36.25;31.50;;;;;12.29;66.62;102068.16;5036719;28;67475;-61
2021/09/22 05:50:23;;;;;;;;;33.00;28.75;;;;;12.27;66.61;102077.16;5056017;28;64077;-61
2021/09/22 05:52:48;;;;;;;;;36.50;31.25;;;;;12.24;66.75;102070.28;5059073;28;45485;-61
2021/09/22 05:55:13;;;;;;;;;39.50;32.75;;;;;12.23;66.72;102070.41;5058098;28;67316;-61
2021/09/22 05:57:41;;;;;;;;;36.75;31.25;;;;;12.23;66.68;102078.31;5057972;28;64288;-61
2021/09/22 06:00:06;;;;;;;;;36.50;29.00;;;;;12.22;67.15;102074.00;5058982;28;45254;-61
2021/09/22 06:02:32;;;;;;;;;38.00;29.50;;;;;12.23;66.88;102081.78;5059102;28;45557;-60
2021/09/22 06:04:57;;;;;;;;;34.50;31.00;;;;;12.22;66.87;102084.53;5058357;28;64018;-61
2021/09/22 06:07:23;;;;;;;;;42.00;33.00;;;;;12.19;67.54;102079.47;5058599;28;45336;-61
2021/09/22 06:09:48;;;;;;;;;32.00;30.00;;;;;12.19;67.64;102076.84;5058395;28;57402;-61
2021/09/22 06:12:13;;;;;;;;;36.75;31.75;;;;;12.17;67.43;102083.06;5058916;28;45391;-61
2021/09/22 06:14:39;;;;;;;;;40.75;30.75;;;;;12.19;67.64;102084.75;5057752;28;72120;-61
2021/09/22 06:17:04;;;;;;;;;39.50;31.50;;;;;12.17;67.93;102090.97;5039561;28;65490;-61
2021/09/22 06:19:29;;;;;;;;;38.25;31.50;;;;;12.19;68.00;102085.56;5057846;28;65509;-61
2021/09/22 06:21:55;;;;;;;;;38.75;31.00;;;;;12.21;67.34;102083.66;5057565;28;65380;-61
2021/09/22 06:24:20;;;;;;;;;36.50;32.25;;;;;12.24;67.82;102090.53;5058481;28;45566;-62
2021/09/22 06:26:46;;;;;;;;;36.25;31.00;;;;;12.25;67.56;102085.13;5057507;28;67493;-62
2021/09/22 06:29:11;;;;;;;;;34.25;30.75;;;;;12.26;68.26;102083.38;5058775;28;45434;-61
2021/09/22 06:31:37;;;;;;;;;36.50;30.50;;;;;12.29;67.98;102080.50;5058508;28;45359;-62
2021/09/22 06:34:03;;;;;;;;;35.25;30.50;;;;;12.33;67.84;102087.25;5058600;28;45328;-61
2021/09/22 06:36:29;;;;;;;;;37.75;31.50;;;;;12.38;68.12;102085.13;5058291;28;45284;-59
2021/09/22 06:38:54;;;;;;;;;36.25;32.50;;;;;12.43;67.59;102082.16;5057623;28;59859;-61
2021/09/22 06:41:19;;;;;;;;;38.00;30.50;;;;;12.49;67.62;102078.22;5057632;28;62973;-61
2021/09/22 06:43:45;;;;;;;;;33.75;31.00;;;;;12.54;67.95;102089.28;5039614;28;51358;-62
2021/09/22 06:46:10;;;;;;;;;31.00;28.25;;;;;12.58;67.55;102086.34;5057599;28;67474;-61
2021/09/22 06:48:36;;;;;;;;;40.25;30.50;;;;;12.61;67.38;102088.75;5058404;28;45312;-61
2021/09/22 06:51:01;;;;;;;;;36.25;29.75;;;;;12.68;67.57;102086.50;5058137;28;46034;-62
2021/09/22 06:53:26;;;;;;;;;33.50;29.50;;;;;12.74;67.23;102086.06;5058054;28;45204;-59
2021/09/22 06:55:52;;;;;;;;;38.75;30.50;;;;;12.81;67.14;102085.59;5057254;28;67979;-59
2021/09/22 06:58:17;;;;;;;;;34.50;29.00;;;;;12.91;66.58;102091.91;5058201;28;45339;-61
2021/09/22 07:00:42;;;;;;;;;36.00;30.00;;;;;13.01;66.30;102094.69;5058176;28;45570;-62
2021/09/22 07:03:11;;;;;;;;;32.50;28.00;;;;;13.09;66.14;102094.09;5038121;28;73581;-62
2021/09/22 07:05:38;;;;;;;;;35.00;29.00;;;;;13.19;65.79;102092.47;5058146;28;45848;-62
2021/09/22 07:08:04;;;;;;;;;28.00;25.00;;;;;13.29;65.96;102100.53;5039588;28;45329;-59
2021/09/22 07:10:31;;;;;;;;;31.75;25.75;;;;;13.39;65.82;102098.88;5057970;28;45506;-62
2021/09/22 07:12:57;;;;;;;;;29.75;23.75;;;;;13.49;65.41;102099.91;5057981;28;46284;-61
2021/09/22 07:15:22;;;;;;;;;33.75;29.75;;;;;13.60;64.87;102096.44;5058015;28;45359;-61
2021/09/22 07:17:48;;;;;;;;;38.25;29.75;;;;;13.71;64.89;102100.91;5057139;28;60564;-59
2021/09/22 07:20:13;;;;;;;;;28.50;25.50;;;;;13.83;64.28;102100.91;5057930;28;45531;-62
2021/09/22 07:22:39;;;;;;;;;26.75;25.00;;;;;13.98;63.98;102101.53;5057366;28;45418;-62
2021/09/22 07:25:05;;;;;;;;;24.50;22.75;;;;;14.13;63.41;102104.75;5039845;28;45360;-61
2021/09/22 07:27:30;;;;;;;;;25.50;23.75;;;;;14.29;62.47;102110.53;5057768;28;45248;-61
2021/09/22 07:29:55;;;;;;;;;30.00;27.00;;;;;14.47;62.36;102102.94;5056676;28;64288;-61
2021/09/22 07:32:21;;;;;;;;;27.25;23.25;;;;;14.65;61.67;102107.69;5057592;28;46178;-61
2021/09/22 07:34:46;;;;;;;;;27.75;24.50;;;;;14.82;61.50;102109.00;5038889;28;45359;-61
2021/09/22 07:37:12;;;;;;;;;25.50;24.50;;;;;14.98;60.96;102112.06;5057050;28;50606;-61
2021/09/22 07:39:39;;;;;;;;;28.50;26.50;;;;;15.18;60.41;102108.72;5055242;28;45673;-59
2021/09/22 07:42:04;;;;;;;;;25.50;21.50;;;;;15.33;59.81;102118.03;5056341;28;45499;-61
2021/09/22 07:44:29;;;;;;;;;26.25;23.25;;;;;15.52;59.29;102113.84;5055713;28;56951;-61
2021/09/22 07:46:55;;;;;;;;;30.75;25.50;;;;;15.69;59.08;102120.34;5035916;28;64350;-61
2021/09/22 07:49:20;;;;;;;;;26.50;24.25;;;;;15.86;58.65;102126.84;5054155;28;45267;-61
2021/09/22 07:51:45;;;;;;;;;32.00;26.25;;;;;16.02;57.63;102127.25;5054130;28;68478;-61
2021/09/22 07:54:11;;;;;;;;;30.75;23.25;;;;;16.16;57.18;102125.22;5053099;28;64928;-61
2021/09/22 07:56:36;;;;;;;;;30.75;23.00;;;;;16.31;57.00;102129.16;5053219;28;59366;-61
2021/09/22 07:59:02;;;;;;;;;27.50;23.25;;;;;16.50;56.67;102134.66;5054913;28;45461;-62
2021/09/22 08:01:27;;;;;;;;;28.75;25.25;;;;;16.67;56.30;102130.53;5055312;28;46246;-61
2021/09/22 08:03:52;;;;;;;;;27.00;25.50;;;;;16.85;55.79;102128.03;5053456;28;45452;-62
2021/09/22 08:06:18;;;;;;;;;26.25;24.75;;;;;17.01;55.70;102130.97;5053771;28;64642;-61
2021/09/22 08:08:43;;;;;;;;;27.25;24.00;;;;;17.17;55.12;102133.09;5055554;28;46413;-62
2021/09/22 08:11:11;;;;;;;;;33.50;26.50;;;;;17.30;54.47;102135.47;5052108;28;72023;-61
2021/09/22 08:13:36;;;;;;;;;29.00;26.75;;;;;17.42;54.23;102136.13;5054704;28;45379;-61
2021/09/22 08:16:02;;;;;;;;;25.25;22.75;;;;;17.56;54.06;102137.50;5054814;28;45287;-61
2021/09/22 08:18:27;;;;;;;;;24.75;20.75;;;;;17.73;53.63;102129.78;5054978;28;45190;-61
2021/09/22 08:20:53;;;;;;;;;26.00;22.75;;;;;17.86;52.72;102126.78;5054703;28;62695;-61
2021/09/22 08:23:20;;;;;;;;;30.00;24.25;;;;;17.93;52.38;102125.22;5054880;28;54732;-61
2021/09/22 08:25:45;;;;;;;;;28.75;22.25;;;;;17.99;52.63;102131.81;5055494;28;45408;-61
2021/09/22 08:28:10;;;;;;;;;29.75;23.50;;;;;18.10;52.42;102128.97;5054521;28;62287;-61
2021/09/22 08:30:36;;;;;;;;;27.25;23.50;;;;;18.20;52.03;102124.44;5054117;28;72987;-61
2021/09/22 08:33:01;;;;;;;;;25.25;20.50;;;;;18.34;51.80;102131.09;5054712;28;59357;-61
2021/09/22 08:35:27;;;;;;;;;19.25;19.25;;;;;18.51;51.63;102132.13;5054668;28;64602;-61
2021/09/22 08:37:52;;;;;;;;;28.25;22.50;;;;;18.69;50.83;102129.50;5054550;28;57409;-61
2021/09/22 08:40:17;;;;;;;;;24.00;21.25;;;;;18.81;50.62;102127.44;5055362;28;46109;-61
2021/09/22 08:42:43;;;;;;;;;29.00;24.00;;;;;18.97;50.19;102137.44;5054564;28;65821;-61
2021/09/22 08:45:11;;;;;;;;;19.75;17.50;;;;;19.14;50.33;102137.59;5055116;28;45343;-61
2021/09/22 08:47:36;;;;;;;;;19.50;17.25;;;;;19.30;49.43;102136.88;5054589;28;45463;-61
2021/09/22 08:50:02;;;;;;;;;21.00;19.75;;;;;19.47;49.40;102127.16;5053866;28;45511;-61
2021/09/22 08:52:28;;;;;;;;;25.00;22.75;;;;;19.61;48.35;102136.41;5036426;28;45488;-61
2021/09/22 08:54:53;;;;;;;;;23.50;20.00;;;;;19.70;48.93;102140.81;5053593;28;64336;-62
2021/09/22 08:57:18;;;;;;;;;23.00;20.25;;;;;19.81;48.39;102141.53;5053658;28;62902;-62
2021/09/22 08:59:44;;;;;;;;;20.25;19.00;;;;;19.86;47.99;102137.41;5053613;28;66799;-61
2021/09/22 09:02:10;;;;;;;;;23.00;20.00;;;;;19.96;47.53;102144.47;5035462;28;66913;-61
2021/09/22 09:04:36;;;;;;;;;18.25;16.25;;;;;20.11;47.56;102148.22;5054748;28;45417;-61
2021/09/22 09:07:02;;;;;;;;;19.50;17.00;;;;;20.27;47.02;102144.78;5054469;28;45821;-62
2021/09/22 09:09:38;;;;;;;;;25.00;23.00;;;;;20.46;46.57;102142.84;5054641;28;45542;-61
2021/09/22 09:12:20;;;;;;;;;19.50;19.50;;;;;20.62;46.23;102142.06;5053580;28;45399;-61
2021/09/22 09:14:56;;;;;;;;;22.25;18.75;;;;;20.79;46.13;102147.47;5052290;28;45320;-62
2021/09/22 09:17:36;;;;;;;;;21.25;15.75;;;;;20.98;45.60;102139.13;5052735;28;45490;-61
2021/09/22 09:20:19;;;;;;;;;17.00;16.75;;;;;21.15;45.04;102141.81;5036892;28;46361;-62
2021/09/22 09:23:08;;;;;;;;;21.00;19.00;;;;;21.24;44.83;102140.81;5037971;28;45970;-61
2021/09/22 09:26:05;;;;;;;;;15.25;13.50;;;;;21.34;43.78;102135.28;5055595;28;45546;-62
2021/09/22 09:28:32;;;;;;;;;18.25;15.00;;;;;21.52;43.51;102126.25;5034222;28;45403;-62
2021/09/22 09:31:08;;;;;;;;;13.25;12.00;;;;;21.62;42.46;102132.28;5057911;28;45610;-61
2021/09/22 09:33:39;;;;;;;;;11.75;11.25;;;;;21.71;42.39;102123.22;5058032;28;46117;-62
2021/09/22 09:36:28;;;;;;;;;17.00;15.00;;;;;21.78;41.52;102129.53;5057647;28;45375;-62
2021/09/22 09:39:12;;;;;;;;;18.25;16.00;;;;;21.81;42.37;102131.03;5039707;28;45443;-62
2021/09/22 09:41:40;;;;;;;;;13.00;13.00;;;;;21.88;41.92;102115.97;5057254;28;45693;-62
2021/09/22 09:44:10;;;;;;;;;14.25;11.50;;;;;21.98;41.97;102122.97;5057512;28;45506;-62
2021/09/22 09:46:36;;;;;;;;;12.00;12.00;;;;;22.03;41.76;102128.63;5057576;28;45232;-63
2021/09/22 09:49:06;;;;;;;;;12.75;12.00;;;;;22.13;40.74;102123.88;5056365;28;45536;-62
2021/09/22 09:51:43;;;;;;;;;14.50;13.75;;;;;22.25;40.24;102116.31;5039828;28;45635;-62
2021/09/22 09:54:09;;;;;;;;;9.75;9.75;;;;;22.34;40.23;102106.41;5058002;28;45984;-62
2021/09/22 09:56:35;;;;;;;;;17.75;14.00;;;;;22.51;40.61;102112.50;5057678;28;45472;-62
2021/09/22 09:59:02;;;;;;;;;13.50;10.00;;;;;22.71;40.24;102115.56;5057816;28;45389;-62
2021/09/22 10:01:37;;;;;;;;;13.25;13.25;;;;;22.92;40.12;102112.22;5057764;28;46385;-62
2021/09/22 10:04:05;;;;;;;;;12.25;9.25;;;;;23.13;39.55;102108.03;5035291;28;45908;-62
2021/09/22 10:06:30;;;;;;;;;10.75;10.75;;;;;23.37;38.77;102111.50;5056184;28;46630;-62
2021/09/22 10:08:55;;;;;;;;;11.00;9.25;;;;;23.53;38.11;102107.84;5021157;28;64757;-62
2021/09/22 10:11:21;;;;;;;;;9.50;9.50;;;;;23.66;37.63;102110.69;5037390;28;65940;-63
2021/09/22 10:13:46;;;;;;;;;10.50;7.25;;;;;23.83;37.25;102108.66;5036718;28;63321;-62
2021/09/22 10:16:11;;;;;;;;;6.75;6.75;;;;;23.98;36.46;102114.06;5038093;28;45774;-62
2021/09/22 10:18:37;;;;;;;;;6.75;5.75;;;;;24.04;36.05;102101.72;5020510;28;45680;-62
2021/09/22 10:21:02;;;;;;;;;7.25;7.25;;;;;24.07;36.05;102098.66;5020979;28;46196;-62
2021/09/22 10:23:28;;;;;;;;;10.50;9.00;;;;;24.19;35.87;102103.56;5055152;28;45422;-63
2021/09/22 10:25:53;;;;;;;;;8.00;7.50;;;;;24.28;36.12;102089.81;5055182;28;45508;-62
2021/09/22 10:28:53;;;;;;;;;9.00;7.75;;;;;24.39;35.45;102088.47;5037875;28;63643;-62
2021/09/22 10:31:21;;;;;;;;;9.25;6.25;;;;;24.50;34.72;102080.94;5023053;28;46358;-62
2021/09/22 10:33:46;;;;;;;;;7.25;6.75;;;;;24.57;34.26;102071.94;5056007;28;45899;-60
2021/09/22 10:36:12;;;;;;;;;7.75;6.75;;;;;24.68;34.44;102067.03;5052677;28;45458;-60
2021/09/22 10:38:47;;;;;;;;;7.00;7.00;;;;;24.83;33.84;102075.06;5055418;28;45535;-60
2021/09/22 10:41:27;;;;;;;;;6.00;6.00;;;;;24.99;33.82;102064.03;5054344;28;45887;-60
2021/09/22 10:43:53;;;;;;;;;7.00;7.00;;;;;25.12;33.47;102073.22;5055939;28;46055;-60
2021/09/22 10:46:19;;;;;;;;;9.75;7.75;;;;;25.18;33.00;102061.69;5037711;28;45549;-60
2021/09/22 10:48:50;;;;;;;;;10.00;9.50;;;;;25.15;33.33;102062.06;5055864;28;45487;-60
2021/09/22 10:51:26;;;;;;;;;10.00;8.00;;;;;25.06;33.39;102057.84;5054262;28;45345;-60
2021/09/22 10:53:51;;;;;;;;;11.75;7.50;;;;;25.07;33.92;102054.16;5021767;28;45474;-60
2021/09/22 10:56:22;;;;;;;;;10.25;7.75;;;;;25.14;34.06;102053.19;5019453;28;65410;-60
2021/09/22 10:58:50;;;;;;;;;7.00;5.75;;;;;25.32;34.01;102052.66;5020309;28;46846;-60
2021/09/22 11:01:31;;;;;;;;;7.50;7.50;;;;;25.50;33.18;102062.09;5055361;28;46214;-60
2021/09/22 11:03:56;;;;;;;;;7.50;6.00;;;;;25.65;33.03;102055.75;5053756;28;45445;-60
2021/09/22 11:09:10;;;;;;;;;9.00;7.25;;;;;25.72;32.40;102045.84;5054582;28;45334;-60